Time;durP1;ratioP1;P1;durP2;ratioP2;P2;SDS_P1;SDS_P2;PMS_P1;PMS_P2;Temp;Humidity;BMP_temperature;BMP_pressure;BME280_temperature;BME280_humidity;BME280_pressure;Samples;Min_cycle;Max_cycle;Signal;HPM_P1;HPM_P2
2022/08/26 00:01:02;;;;;;;18.90;4.97;;;;;;;-141.28;100.00;49933.75;5092286;28;20264;-75
2022/08/26 00:03:29;;;;;;;15.07;4.10;;;;;;;-141.28;100.00;49910.19;5102062;28;20194;-76
2022/08/26 00:05:56;;;;;;;21.50;5.07;;;;;;;-141.28;100.00;49894.50;5091219;28;20226;-74
2022/08/26 00:08:24;;;;;;;18.67;5.00;;;;;;;-141.28;100.00;49874.88;5097866;28;20192;-75
2022/08/26 00:10:52;;;;;;;13.40;4.60;;;;;;;-141.28;100.00;49904.31;5081332;28;20196;-75
2022/08/26 00:13:21;;;;;;;17.70;5.20;;;;;;;-141.28;100.00;49910.19;5076942;28;20226;-76
2022/08/26 00:15:50;;;;;;;17.43;5.20;;;;;;;-141.28;100.00;49921.97;5092059;28;20210;-75
2022/08/26 00:18:17;;;;;;;15.63;4.80;;;;;;;-141.28;100.00;49914.13;5099663;28;20192;-76
2022/08/26 00:20:44;;;;;;;20.43;5.13;;;;;;;-141.28;100.00;49896.47;5071969;28;20663;-76
2022/08/26 00:23:11;;;;;;;18.37;5.23;;;;;;;-141.28;100.00;49894.50;5072305;28;20655;-76
2022/08/26 00:25:38;;;;;;;20.50;4.40;;;;;;;-141.28;100.00;49867.03;5071847;28;20202;-75
2022/08/26 00:28:06;;;;;;;22.07;4.43;;;;;;;-141.28;100.00;49859.19;5080495;28;20210;-77
2022/08/26 00:30:36;;;;;;;19.87;5.10;;;;;;;-141.28;100.00;49863.09;5091839;28;20195;-74
2022/08/26 00:33:05;;;;;;;17.10;4.50;;;;;;;-141.28;100.00;49880.75;5072950;28;20250;-75
2022/08/26 00:35:33;;;;;;;17.30;4.27;;;;;;;-141.28;100.00;49874.88;5072118;28;20216;-76
2022/08/26 00:38:01;;;;;;;18.90;4.90;;;;;;;-141.28;100.00;49878.81;5091679;28;20192;-74
2022/08/26 00:40:31;;;;;;;14.33;4.67;;;;;;;-141.28;100.00;49884.69;5078801;28;20227;-76
2022/08/26 00:42:59;;;;;;;17.73;4.80;;;;;;;-141.28;100.00;49867.03;5072110;28;20250;-76
2022/08/26 00:45:27;;;;;;;14.50;5.17;;;;;;;-141.28;100.00;49867.03;5075593;28;20200;-74
2022/08/26 00:47:59;;;;;;;14.70;5.03;;;;;;;-141.28;100.00;49884.69;5072331;28;20231;-76
2022/08/26 00:50:36;;;;;;;16.80;4.43;;;;;;;-141.28;100.00;49925.91;5073675;28;20214;-80
2022/08/26 00:53:20;;;;;;;14.43;5.30;;;;;;;-141.28;100.00;49923.94;5072267;28;20195;-75
2022/08/26 00:55:50;;;;;;;17.13;4.93;;;;;;;-141.28;100.00;49959.25;5073084;28;20242;-76
2022/08/26 00:58:18;;;;;;;13.03;4.57;;;;;;;-141.28;100.00;49902.34;5071996;28;20211;-76
2022/08/26 01:00:46;;;;;;;19.70;5.47;;;;;;;-141.28;100.00;49888.63;5071894;28;20666;-75
2022/08/26 01:03:16;;;;;;;15.93;5.87;;;;;;;-141.28;100.00;49878.81;5072183;28;20663;-75
2022/08/26 01:05:46;;;;;;;17.27;6.63;;;;;;;-141.28;100.00;49898.44;5071674;28;20196;-76
2022/08/26 01:08:14;;;;;;;17.50;5.90;;;;;;;-141.28;100.00;49894.50;5073627;28;20277;-76
2022/08/26 01:10:41;;;;;;;19.03;6.27;;;;;;;-141.28;100.00;49898.44;5091837;28;20203;-76
2022/08/26 01:13:11;;;;;;;17.67;5.67;;;;;;;-141.28;100.00;49921.97;5112754;28;20224;-74
2022/08/26 01:15:43;;;;;;;17.27;6.33;;;;;;;-141.28;100.00;49921.97;5111490;28;20197;-76
2022/08/26 01:18:10;;;;;;;28.50;6.60;;;;;;;-141.28;100.00;49961.22;5106302;28;20195;-75
2022/08/26 01:20:47;;;;;;;16.50;6.17;;;;;;;-141.28;100.00;49965.16;5090951;28;20213;-76
2022/08/26 01:23:16;;;;;;;16.43;6.40;;;;;;;-141.28;100.00;49969.06;5090620;28;20202;-74
2022/08/26 01:25:48;;;;;;;14.40;5.90;;;;;;;-141.28;100.00;49973.00;5090918;28;20199;-75
2022/08/26 01:28:21;;;;;;;21.30;7.07;;;;;;;-141.28;100.00;50010.28;5071253;28;20230;-75
2022/08/26 01:30:52;;;;;;;15.23;6.20;;;;;;;-141.28;100.00;50031.88;5074084;28;20273;-75
2022/08/26 01:33:24;;;;;;;20.50;6.17;;;;;;;-141.28;100.00;50059.34;5072324;28;20240;-74
2022/08/26 01:35:52;;;;;;;18.37;6.10;;;;;;;-141.28;100.00;50063.28;5077437;28;20600;-76
2022/08/26 01:38:21;;;;;;;21.67;6.87;;;;;;;-141.28;100.00;50096.66;5090628;28;20201;-75
2022/08/26 01:40:49;;;;;;;18.07;7.07;;;;;;;-141.28;100.00;50098.63;5081285;28;20199;-75
2022/08/26 01:43:27;;;;;;;18.57;6.27;;;;;;;-141.28;100.00;50169.28;5080930;28;20568;-75
2022/08/26 01:45:55;;;;;;;24.33;6.53;;;;;;;-141.28;100.00;50181.03;5071398;28;20200;-77
2022/08/26 01:48:29;;;;;;;21.43;6.43;;;;;;;-141.28;100.00;50389.09;5073897;28;20231;-77
2022/08/26 01:50:56;;;;;;;24.00;5.93;;;;;;;-141.28;100.00;50440.13;5085396;28;20199;-76
2022/08/26 01:53:26;;;;;;;17.97;6.27;;;;;;;-141.28;100.00;50424.44;5112179;28;20620;-76
2022/08/26 01:55:58;;;;;;;21.90;6.90;;;;;;;-141.28;100.00;50428.34;5095894;28;20658;-73
2022/08/26 01:58:32;;;;;;;21.57;7.00;;;;;;;-141.28;100.00;50459.75;5073312;28;20214;-76
2022/08/26 02:01:00;;;;;;;17.17;6.03;;;;;;;-141.28;100.00;50471.53;5070811;28;20720;-75
2022/08/26 02:03:29;;;;;;;20.43;6.07;;;;;;;-141.28;100.00;50463.69;5070757;28;20189;-76
2022/08/26 02:05:59;;;;;;;18.53;6.70;;;;;;;-141.28;100.00;50444.06;5070581;28;20196;-75
2022/08/26 02:08:31;;;;;;;11.10;5.90;;;;;;;-141.28;100.00;50349.84;5070838;28;20626;-76
2022/08/26 02:10:58;;;;;;;30.93;6.37;;;;;;;-141.28;100.00;50510.78;5071048;28;20192;-77
2022/08/26 02:13:28;;;;;;;20.70;5.90;;;;;;;-141.28;100.00;50495.09;5071940;28;20255;-76
2022/08/26 02:15:56;;;;;;;19.10;6.37;;;;;;;-141.28;100.00;50499.00;5070427;28;20208;-75
2022/08/26 02:18:23;;;;;;;19.20;6.03;;;;;;;-141.28;100.00;50483.31;5070628;28;20212;-76
2022/08/26 02:20:54;;;;;;;22.87;6.03;;;;;;;-141.28;100.00;50475.47;5071321;28;20199;-75
2022/08/26 02:23:20;;;;;;;22.13;6.50;;;;;;;-141.28;100.00;50479.38;5093738;28;20203;-75
2022/08/26 02:25:56;;;;;;;14.80;5.77;;;;;;;-141.28;100.00;50502.94;5114398;28;20202;-74
2022/08/26 02:28:24;;;;;;;17.17;6.17;;;;;;;-141.28;100.00;50510.78;5095294;28;20616;-75
2022/08/26 02:30:52;;;;;;;22.97;5.83;;;;;;;-141.28;100.00;50477.44;5094103;28;20283;-74
2022/08/26 02:33:20;;;;;;;16.87;6.03;;;;;;;-141.28;100.00;50459.75;5099206;28;20194;-74
2022/08/26 02:35:47;;;;;;;20.33;6.77;;;;;;;-141.28;100.00;50444.06;5100602;28;20216;-75
2022/08/26 02:38:14;;;;;;;22.93;6.87;;;;;;;-141.28;100.00;50463.69;5111695;28;20194;-75
2022/08/26 02:40:42;;;;;;;22.23;7.10;;;;;;;-141.28;100.00;50459.75;5099288;28;20207;-76
2022/08/26 02:43:11;;;;;;;12.93;6.53;;;;;;;-141.28;100.00;50500.97;5093613;28;20199;-75
2022/08/26 02:45:40;;;;;;;15.67;5.97;;;;;;;-141.28;100.00;50479.38;5087587;28;20218;-75
2022/08/26 02:48:11;;;;;;;20.43;6.60;;;;;;;-141.28;100.00;50483.31;5085476;28;20647;-76
2022/08/26 02:50:38;;;;;;;20.90;6.80;;;;;;;-141.28;100.00;50453.88;5097520;28;20196;-76
2022/08/26 02:53:05;;;;;;;22.10;6.83;;;;;;;-141.28;100.00;50444.06;5083370;28;20202;-76
2022/08/26 02:55:33;;;;;;;22.60;6.83;;;;;;;-141.28;100.00;50430.31;5097706;28;20196;-74
2022/08/26 02:58:00;;;;;;;25.47;7.00;;;;;;;-141.28;100.00;50424.44;5106702;28;20574;-75
2022/08/26 03:00:30;;;;;;;26.93;7.23;;;;;;;-141.28;100.00;50467.59;5093371;28;20196;-76
2022/08/26 03:02:58;;;;;;;21.93;6.20;;;;;;;-141.28;100.00;50475.47;5094182;28;20203;-75
2022/08/26 03:05:26;;;;;;;29.80;6.50;;;;;;;-141.28;100.00;50449.94;5096714;28;20230;-74
2022/08/26 03:07:55;;;;;;;23.60;7.30;;;;;;;-141.28;100.00;50471.53;5073458;28;20228;-75
2022/08/26 03:10:23;;;;;;;25.60;6.47;;;;;;;-141.28;100.00;50479.38;5073366;28;20242;-76
2022/08/26 03:12:51;;;;;;;15.93;6.30;;;;;;;-141.28;100.00;50491.16;5072724;28;20238;-74
2022/08/26 03:15:20;;;;;;;18.33;6.53;;;;;;;-141.28;100.00;50495.09;5092094;28;20198;-76
2022/08/26 03:17:49;;;;;;;15.47;7.20;;;;;;;-141.28;100.00;50544.16;5113005;28;20210;-74
2022/08/26 03:20:17;;;;;;;19.37;6.73;;;;;;;-141.28;100.00;50530.41;5102918;28;20191;-75
2022/08/26 03:22:46;;;;;;;29.67;6.90;;;;;;;-141.28;100.00;50530.41;5092176;28;20196;-75
2022/08/26 03:25:15;;;;;;;28.33;7.17;;;;;;;-141.28;100.00;50546.13;5085258;28;20195;-74
2022/08/26 03:27:43;;;;;;;22.60;6.60;;;;;;;-141.28;100.00;50552.00;5109710;28;20221;-73
2022/08/26 03:32:57;;;;;;;19.00;6.63;;;;;;;-141.28;100.00;50697.28;5103959;28;20690;-75
2022/08/26 03:35:26;;;;;;;28.17;7.97;;;;;;;-141.28;100.00;50603.06;5079886;28;20211;-76
2022/08/26 03:37:54;;;;;;;20.43;6.93;;;;;;;-141.28;100.00;50593.22;5072877;28;20233;-74
2022/08/26 03:40:23;;;;;;;29.57;7.33;;;;;;;-141.28;100.00;50573.59;5073342;28;20206;-75
2022/08/26 03:42:50;;;;;;;26.60;6.87;;;;;;;-141.28;100.00;50542.19;5054882;28;20208;-75
2022/08/26 03:45:20;;;;;;;28.17;6.63;;;;;;;-141.28;100.00;50538.28;5072941;28;20204;-77
2022/08/26 03:47:48;;;;;;;19.90;5.70;;;;;;;-141.28;100.00;50534.34;5077324;28;20238;-76
2022/08/26 03:50:19;;;;;;;23.97;6.80;;;;;;;-141.28;100.00;50524.53;5072273;28;20723;-77
2022/08/26 03:52:47;;;;;;;24.13;6.13;;;;;;;-141.28;100.00;50546.13;5073046;28;20627;-75
2022/08/26 03:55:15;;;;;;;22.47;6.53;;;;;;;-141.28;100.00;50555.94;5073593;28;20208;-75
2022/08/26 03:57:42;;;;;;;20.87;6.80;;;;;;;-141.28;100.00;50447.97;5092719;28;20199;-76
2022/08/26 04:00:14;;;;;;;19.17;5.97;;;;;;;-141.28;100.00;50365.53;5089594;28;20261;-76
2022/08/26 04:02:44;;;;;;;27.47;7.00;;;;;;;-141.28;100.00;50298.81;5093281;28;20225;-77
2022/08/26 04:05:12;;;;;;;23.07;5.93;;;;;;;-141.28;100.00;50257.59;5089786;28;20192;-75
2022/08/26 04:07:42;;;;;;;20.90;5.70;;;;;;;-141.28;100.00;50251.69;5072154;28;20697;-76
2022/08/26 04:10:13;;;;;;;29.10;6.10;;;;;;;-141.28;100.00;50289.00;5072035;28;20253;-75
2022/08/26 04:12:41;;;;;;;23.50;6.00;;;;;;;-141.28;100.00;50375.34;5086144;28;20199;-76
2022/08/26 04:15:13;;;;;;;37.90;7.77;;;;;;;-141.28;100.00;50502.94;5098289;28;20685;-76
2022/08/26 04:17:40;;;;;;;34.73;6.47;;;;;;;-141.28;100.00;50451.91;5112301;28;20199;-77
2022/08/26 04:20:08;;;;;;;21.73;5.17;;;;;;;-141.28;100.00;50310.59;5111597;28;20191;-77
2022/08/26 04:22:35;;;;;;;35.80;6.77;;;;;;;-141.28;100.00;50277.22;5100721;28;20200;-76
2022/08/26 04:25:04;;;;;;;54.80;7.37;;;;;;;-141.28;100.00;50247.78;5102671;28;20215;-74
2022/08/26 04:27:32;;;;;;;32.93;6.63;;;;;;;-141.28;100.00;50236.00;5091192;28;20230;-75
2022/08/26 04:29:59;;;;;;;35.30;6.37;;;;;;;-141.28;100.00;50204.59;5091508;28;20206;-75
2022/08/26 04:32:26;;;;;;;28.73;6.47;;;;;;;-141.28;100.00;50188.91;5104009;28;20569;-76
2022/08/26 04:34:53;;;;;;;33.93;6.83;;;;;;;-141.28;100.00;50192.81;5100638;28;20233;-74
2022/08/26 04:37:21;;;;;;;31.97;6.77;;;;;;;-141.28;100.00;50224.22;5080956;28;20729;-74
2022/08/26 04:39:51;;;;;;;39.10;7.10;;;;;;;-141.28;100.00;50263.47;5099785;28;20205;-75
2022/08/26 04:42:20;;;;;;;40.07;7.23;;;;;;;-141.28;100.00;50261.50;5097166;28;20196;-76
2022/08/26 04:44:47;;;;;;;29.47;7.17;;;;;;;-141.28;100.00;50261.50;5101593;28;20637;-76
2022/08/26 04:47:18;;;;;;;24.93;6.87;;;;;;;-141.28;100.00;50214.41;5093393;28;20207;-76
2022/08/26 04:49:45;;;;;;;28.63;6.27;;;;;;;-141.28;100.00;50194.78;5080626;28;20673;-76
2022/08/26 04:52:12;;;;;;;26.03;4.97;;;;;;;-141.28;100.00;50106.47;5091548;28;20221;-76
2022/08/26 04:54:42;;;;;;;33.63;5.67;;;;;;;-141.28;100.00;50055.44;5091369;28;20201;-77
2022/08/26 04:57:10;;;;;;;20.37;5.57;;;;;;;-141.28;100.00;50016.19;5104853;28;20213;-74
2022/08/26 04:59:40;;;;;;;13.23;4.60;;;;;;;-141.28;100.00;50120.19;5099074;28;20195;-74
2022/08/26 05:02:07;;;;;;;19.63;4.50;;;;;;;-141.28;100.00;50190.84;5097106;28;20204;-75
2022/08/26 05:04:34;;;;;;;29.37;5.60;;;;;;;-141.28;100.00;50267.41;5100928;28;20253;-76
2022/08/26 05:07:04;;;;;;;19.73;5.00;;;;;;;-141.28;100.00;50271.31;5073156;28;20192;-77
2022/08/26 05:09:33;;;;;;;24.60;5.20;;;;;;;-141.28;100.00;50324.31;5071545;28;20568;-75
2022/08/26 05:12:00;;;;;;;34.70;5.33;;;;;;;-141.28;100.00;50371.44;5087348;28;20209;-76
2022/08/26 05:14:27;;;;;;;20.03;5.90;;;;;;;-141.28;100.00;50424.44;5110730;28;20237;-77
2022/08/26 05:16:56;;;;;;;26.13;5.73;;;;;;;-141.28;100.00;50467.59;5093389;28;20227;-75
2022/08/26 05:19:23;;;;;;;22.67;6.37;;;;;;;-141.28;100.00;50485.28;5080863;28;20210;-76
2022/08/26 05:21:52;;;;;;;27.10;5.17;;;;;;;-141.28;100.00;50497.06;5090588;28;20628;-76
2022/08/26 05:24:18;;;;;;;25.50;5.87;;;;;;;-141.28;100.00;50569.69;5101210;28;20195;-76
2022/08/26 05:26:46;;;;;;;21.60;5.13;;;;;;;-141.28;100.00;50565.75;5107571;28;20560;-75
2022/08/26 05:29:14;;;;;;;23.77;5.43;;;;;;;-141.28;100.00;50605.00;5090494;28;20231;-75
2022/08/26 05:31:41;;;;;;;23.37;5.57;;;;;;;-141.28;100.00;50667.81;5090753;28;20680;-75
2022/08/26 05:34:10;;;;;;;18.73;5.10;;;;;;;-141.28;100.00;50681.56;5091113;28;20195;-76
2022/08/26 05:36:37;;;;;;;29.03;6.37;;;;;;;-141.28;100.00;50709.06;5096279;28;20220;-76
2022/08/26 05:39:08;;;;;;;23.77;6.27;;;;;;;-141.28;100.00;50683.53;5084172;28;20581;-76
2022/08/26 05:41:37;;;;;;;21.00;5.63;;;;;;;-141.28;100.00;50644.28;5080110;28;20227;-76
2022/08/26 05:44:07;;;;;;;32.20;6.07;;;;;;;-141.28;100.00;50632.50;5093520;28;20657;-74
2022/08/26 05:46:36;;;;;;;26.83;5.97;;;;;;;-141.28;100.00;50616.78;5111057;28;20657;-76
2022/08/26 05:49:04;;;;;;;21.40;6.10;;;;;;;-141.28;100.00;50555.94;5082860;28;20223;-75
2022/08/26 05:51:34;;;;;;;24.03;6.57;;;;;;;-141.28;100.00;50612.88;5111038;28;20195;-76
2022/08/26 05:54:02;;;;;;;26.60;7.13;;;;;;;-141.28;100.00;50573.59;5081059;28;20728;-75
2022/08/26 05:56:31;;;;;;;25.53;7.30;;;;;;;-141.28;100.00;50495.09;5073228;28;20220;-76
2022/08/26 05:59:01;;;;;;;32.63;6.70;;;;;;;-141.28;100.00;50396.94;5086499;28;20199;-73
2022/08/26 06:01:30;;;;;;;25.63;5.77;;;;;;;-141.28;100.00;50398.91;5098408;28;20234;-76
2022/08/26 06:04:00;;;;;;;25.97;5.90;;;;;;;-141.28;100.00;50477.44;5095175;28;20202;-75
2022/08/26 06:06:29;;;;;;;24.83;6.60;;;;;;;-141.28;100.00;50608.94;5094941;28;20202;-76
2022/08/26 06:08:59;;;;;;;28.67;6.07;;;;;;;-141.28;100.00;50705.13;5095091;28;20230;-75
2022/08/26 06:11:28;;;;;;;30.80;6.97;;;;;;;-141.28;100.00;50777.75;5077694;28;20226;-77
2022/08/26 06:13:58;;;;;;;26.03;6.30;;;;;;;-141.28;100.00;50742.41;5075351;28;20702;-76
2022/08/26 06:16:25;;;;;;;19.90;5.77;;;;;;;-141.28;100.00;50746.34;5075879;28;20219;-76
2022/08/26 06:18:53;;;;;;;18.40;5.47;;;;;;;-141.28;100.00;50726.72;5087425;28;20218;-76
2022/08/26 06:21:22;;;;;;;25.37;6.50;;;;;;;-141.28;100.00;50728.69;5078237;28;20211;-77
2022/08/26 06:26:37;;;;;;;23.87;5.77;;;;;;;-141.28;100.00;50760.09;5086334;28;20207;-75
2022/08/26 06:29:06;;;;;;;27.80;6.57;;;;;;;-141.28;100.00;50640.34;5075083;28;20224;-75
2022/08/26 06:31:34;;;;;;;33.27;7.37;;;;;;;-141.28;100.00;50659.97;5074455;28;20196;-77
2022/08/26 06:34:01;;;;;;;28.93;6.43;;;;;;;-141.28;100.00;50636.41;5074084;28;20558;-76
2022/08/26 06:36:31;;;;;;;38.40;6.93;;;;;;;-141.28;100.00;50650.16;5056584;28;20250;-75
2022/08/26 06:39:01;;;;;;;20.97;6.80;;;;;;;-141.28;100.00;50648.19;5074306;28;20196;-75
2022/08/26 06:41:32;;;;;;;24.63;6.70;;;;;;;-141.28;100.00;50599.13;5076140;28;20681;-75
2022/08/26 06:44:03;;;;;;;28.50;6.47;;;;;;;-141.28;100.00;50646.22;5084702;28;20211;-76
2022/08/26 06:46:31;;;;;;;25.30;6.20;;;;;;;-141.28;100.00;50648.19;5097415;28;20196;-76
2022/08/26 06:48:58;;;;;;;22.73;7.07;;;;;;;-141.28;100.00;50665.88;5083188;28;20234;-75
2022/08/26 06:51:30;;;;;;;36.83;7.27;;;;;;;-141.28;100.00;50652.13;5101275;28;20198;-77
2022/08/26 06:54:01;;;;;;;18.33;5.73;;;;;;;-141.28;100.00;50638.38;5087069;28;20254;-77
2022/08/26 06:56:33;;;;;;;31.70;7.47;;;;;;;-141.28;100.00;50716.91;5114414;28;20202;-75
2022/08/26 06:59:05;;;;;;;27.30;6.67;;;;;;;-141.28;100.00;50756.16;5099661;28;20229;-76
2022/08/26 07:01:35;;;;;;;28.87;6.97;;;;;;;-141.28;100.00;50791.50;5114066;28;20620;-76
2022/08/26 07:04:07;;;;;;;26.23;6.20;;;;;;;-141.28;100.00;50787.56;5095845;28;20188;-77
2022/08/26 07:06:38;;;;;;;25.43;8.97;;;;;;;-141.28;100.00;50789.53;5092934;28;20195;-76
2022/08/26 07:09:09;;;;;;;32.63;7.40;;;;;;;-141.28;100.00;50789.53;5092741;28;20272;-79
2022/08/26 07:11:39;;;;;;;25.80;6.60;;;;;;;-141.28;100.00;50830.75;5093947;28;20288;-75
2022/08/26 07:14:08;;;;;;;24.23;6.67;;;;;;;-141.28;100.00;50813.09;5068614;28;20228;-77
2022/08/26 07:16:36;;;;;;;34.50;7.37;;;;;;;-141.28;100.00;50813.09;5076714;28;20200;-75
2022/08/26 07:19:06;;;;;;;26.07;6.80;;;;;;;-141.28;100.00;50817.03;5083405;28;20196;-76
2022/08/26 07:21:35;;;;;;;31.30;7.97;;;;;;;-141.28;100.00;50714.94;5075682;28;20658;-75
2022/08/26 07:24:03;;;;;;;22.93;6.97;;;;;;;-141.28;100.00;50775.78;5093369;28;20565;-77
2022/08/26 07:26:31;;;;;;;18.53;6.37;;;;;;;-141.28;100.00;50958.38;5087961;28;20230;-78
2022/08/26 07:28:59;;;;;;;34.33;7.37;;;;;;;-141.28;100.00;50923.03;5098370;28;20219;-76
2022/08/26 07:31:31;;;;;;;34.47;7.40;;;;;;;-141.28;100.00;51013.31;5093096;28;20278;-76
2022/08/26 07:34:00;;;;;;;25.87;6.10;;;;;;;-141.28;100.00;51064.38;5106255;28;20605;-76
2022/08/26 07:36:27;;;;;;;23.83;7.97;;;;;;;-141.28;100.00;51142.91;5087750;28;20223;-77
2022/08/26 07:38:55;;;;;;;20.70;6.00;;;;;;;-141.28;100.00;51205.72;5097867;28;20202;-75
2022/08/26 07:41:24;;;;;;;17.27;5.60;;;;;;;-141.28;100.00;51390.28;5106623;28;20202;-77
2022/08/26 07:43:53;;;;;;;20.43;5.50;;;;;;;-141.28;100.00;51370.66;5104485;28;20198;-74
2022/08/26 07:46:21;;;;;;;22.20;5.90;;;;;;;-141.28;100.00;51362.78;5104724;28;20192;-75
2022/08/26 07:48:51;;;;;;;24.53;5.90;;;;;;;-141.28;100.00;51429.53;5081420;28;20224;-77
2022/08/26 07:51:21;;;;;;;25.13;5.93;;;;;;;-141.28;100.00;51527.72;5099587;28;20194;-76
2022/08/26 07:53:49;;;;;;;19.13;5.33;;;;;;;-141.28;100.00;51731.94;5073078;28;20194;-77
2022/08/26 07:56:16;;;;;;;25.97;5.10;;;;;;;-141.28;100.00;51747.63;5073491;28;20199;-74
2022/08/26 07:58:43;;;;;;;27.73;6.00;;;;;;;-141.28;100.00;51751.56;5081179;28;20206;-76
2022/08/26 08:01:12;;;;;;;22.43;5.77;;;;;;;-141.28;100.00;51637.69;5090089;28;20199;-75
2022/08/26 08:03:39;;;;;;;24.30;6.83;;;;;;;-141.28;100.00;51400.09;5092145;28;20196;-75
2022/08/26 08:06:08;;;;;;;23.70;6.17;;;;;;;-141.28;100.00;51178.25;5100291;28;20245;-76
2022/08/26 08:08:39;;;;;;;18.53;5.80;;;;;;;-141.28;100.00;50775.78;5096201;28;20254;-75
2022/08/26 08:11:06;;;;;;;23.90;5.53;;;;;;;-141.28;100.00;50491.16;5082942;28;20200;-75
2022/08/26 08:13:33;;;;;;;23.90;5.20;;;;;;;-141.28;100.00;50177.13;5072401;28;21551;-76
2022/08/26 08:16:00;;;;;;;18.40;5.47;;;;;;;-141.28;100.00;49965.16;5071693;28;20207;-76
2022/08/26 08:18:28;;;;;;;22.77;5.43;;;;;;;-141.28;100.00;49859.19;5074840;28;20215;-76
2022/08/26 08:20:56;;;;;;;21.43;5.23;;;;;;;-141.28;100.00;49870.94;5082136;28;20203;-74
2022/08/26 08:23:27;;;;;;;25.53;4.90;;;;;;;-141.28;100.00;49867.03;5072974;28;20220;-75
2022/08/26 08:26:00;;;;;;;26.77;5.47;;;;;;;-141.28;100.00;49984.78;5072521;28;20192;-76
2022/08/26 08:28:27;;;;;;;17.03;4.90;;;;;;;-141.28;100.00;50200.66;5073124;28;20212;-75
2022/08/26 08:30:54;;;;;;;19.70;5.10;;;;;;;-141.28;100.00;50177.13;5071976;28;20204;-76
2022/08/26 08:33:22;;;;;;;30.20;5.27;;;;;;;-141.28;100.00;50198.72;5073040;28;20284;-76
2022/08/26 08:35:49;;;;;;;19.60;4.87;;;;;;;-141.28;100.00;50165.34;5072594;28;20216;-75
2022/08/26 08:38:16;;;;;;;19.43;4.87;;;;;;;-141.28;100.00;50082.91;5071685;28;20200;-75
2022/08/26 08:40:46;;;;;;;22.20;4.67;;;;;;;-141.28;100.00;50018.16;5084031;28;20197;-75
2022/08/26 08:43:30;;;;;;;31.57;4.53;;;;;;;-141.28;100.00;49684.53;5079250;28;20196;-74
2022/08/26 08:46:04;;;;;;;25.67;4.27;;;;;;;-141.28;100.00;49647.22;5077809;28;20200;-76
2022/08/26 08:48:35;;;;;;;18.50;4.00;;;;;;;-141.28;100.00;49700.22;5084537;28;20226;-75
2022/08/26 08:51:12;;;;;;;23.23;4.67;;;;;;;-141.28;100.00;49176.28;5092252;28;20196;-75
2022/08/26 08:53:43;;;;;;;18.33;5.07;;;;;;;-141.28;100.00;49219.47;5111527;28;20223;-75
2022/08/26 08:56:22;;;;;;;17.93;4.17;;;;;;;-141.28;100.00;48972.25;5097460;28;20188;-75
2022/08/26 08:58:56;;;;;;;21.70;4.83;;;;;;;-141.28;100.00;48925.16;5109333;28;20228;-75
2022/08/26 09:01:45;;;;;;;16.27;3.70;;;;;;;-141.28;100.00;48878.06;5091335;28;20190;-76
2022/08/26 09:04:44;;;;;;;13.83;3.77;;;;;;;-141.28;100.00;48882.00;5109231;28;20198;-74
2022/08/26 09:07:17;;;;;;;25.83;4.17;;;;;;;-141.28;100.00;48948.69;5082897;28;20214;-75
2022/08/26 09:09:47;;;;;;;14.80;3.87;;;;;;;-141.28;100.00;48827.06;5071048;28;20227;-76
2022/08/26 09:12:20;;;;;;;8.10;3.30;;;;;;;-141.28;100.00;48803.50;5071520;28;20193;-77
2022/08/26 09:14:49;;;;;;;14.77;4.30;;;;;;;-141.28;100.00;48827.06;5071847;28;20263;-77
2022/08/26 09:17:24;;;;;;;13.70;4.00;;;;;;;-141.28;100.00;48795.66;5087848;28;20272;-75
2022/08/26 09:19:54;;;;;;;17.43;4.10;;;;;;;-141.28;100.00;48813.31;5075100;28;20638;-75
2022/08/26 09:22:32;;;;;;;21.17;4.47;;;;;;;-141.28;100.00;48774.09;5081398;28;20276;-75
2022/08/26 09:25:00;;;;;;;16.37;5.03;;;;;;;-141.28;100.00;48866.28;5085892;28;20200;-75
2022/08/26 09:27:41;;;;;;;22.23;4.17;;;;;;;-141.28;100.00;48748.56;5072893;28;20225;-76
2022/08/26 09:30:10;;;;;;;25.30;4.40;;;;;;;-141.28;100.00;48768.19;5091150;28;20225;-76
2022/08/26 09:32:37;;;;;;;23.30;4.90;;;;;;;-141.28;100.00;48760.34;5084268;28;20205;-75
2022/08/26 09:35:07;;;;;;;15.37;4.97;;;;;;;-141.28;100.00;48768.19;5080249;28;20198;-76
2022/08/26 09:37:37;;;;;;;20.37;4.93;;;;;;;-141.28;100.00;48770.16;5075698;28;20229;-75
2022/08/26 09:40:18;;;;;;;19.47;4.90;;;;;;;-141.28;100.00;48695.59;5076753;28;20571;-76
2022/08/26 09:42:46;;;;;;;23.83;6.00;;;;;;;-141.28;100.00;48772.13;5075678;28;20201;-76
2022/08/26 09:45:14;;;;;;;18.83;4.70;;;;;;;-141.28;100.00;48774.09;5083776;28;20207;-75
2022/08/26 09:47:54;;;;;;;12.23;4.93;;;;;;;-141.28;100.00;48695.59;5094934;28;20588;-75
2022/08/26 09:50:26;;;;;;;15.77;6.10;;;;;;;-141.28;100.00;48772.13;5095901;28;20228;-76
2022/08/26 09:53:15;;;;;;;17.23;5.20;;;;;;;-141.28;100.00;48748.56;5102246;28;20280;-76
2022/08/26 09:55:45;;;;;;;17.30;6.10;;;;;;;-141.28;91.50;48740.72;5075495;28;20204;-77
2022/08/26 09:58:33;;;;;;;19.57;6.03;;;;;;;-141.28;98.57;48787.81;5081884;28;20196;-75
2022/08/26 10:01:01;;;;;;;20.03;5.23;;;;;;;-141.28;100.00;48776.03;5097134;28;20577;-77
2022/08/26 10:03:32;;;;;;;10.03;4.87;;;;;;;-141.28;100.00;48774.09;5076386;28;20192;-76
2022/08/26 10:06:02;;;;;;;23.63;5.83;;;;;;;-141.28;98.48;48740.72;5086083;28;20254;-76
2022/08/26 10:08:32;;;;;;;21.27;5.07;;;;;;;-141.28;90.34;48719.16;5091185;28;20210;-76
2022/08/26 10:11:01;;;;;;;18.60;5.43;;;;;;;-141.28;88.74;48713.25;5094314;28;20227;-77
2022/08/26 10:13:34;;;;;;;20.40;6.00;;;;;;;-141.28;88.94;48721.13;5090438;28;20233;-75
2022/08/26 10:16:10;;;;;;;25.33;5.60;;;;;;;-141.28;85.42;48709.34;5084466;28;20284;-74
2022/08/26 10:18:44;;;;;;;26.20;5.57;;;;;;;-141.28;81.80;48730.91;5074839;28;20200;-75
2022/08/26 10:21:15;;;;;;;11.23;5.30;;;;;;;-141.28;80.55;48748.56;5075069;28;20193;-75
2022/08/26 10:23:45;;;;;;;26.50;6.97;;;;;;;-141.28;80.30;48725.03;5074911;28;20204;-76
2022/08/26 10:26:16;;;;;;;19.17;5.87;;;;;;;-141.28;76.67;48728.97;5074493;28;20195;-77
2022/08/26 10:28:51;;;;;;;18.53;5.87;;;;;;;-141.28;78.61;48721.13;5101109;28;20195;-76
2022/08/26 10:31:28;;;;;;;16.13;5.90;;;;;;;-141.28;77.65;48752.50;5099699;28;20192;-74
2022/08/26 10:33:56;;;;;;;17.47;5.60;;;;;;;-141.28;79.83;48713.25;5096889;28;20207;-76
2022/08/26 10:39:15;;;;;;;13.67;5.73;;;;;;;-141.28;91.04;48787.81;5113918;28;20289;-76
2022/08/26 10:41:46;;;;;;;13.07;4.30;;;;;;;-141.28;96.37;48776.03;5099369;28;20206;-77
2022/08/26 10:44:18;;;;;;;20.93;5.80;;;;;;;-141.28;91.66;48815.28;5106320;28;20199;-75
2022/08/26 10:46:50;;;;;;;19.70;6.93;;;;;;;-141.28;97.39;48815.28;5093372;28;20245;-76
2022/08/26 10:49:17;;;;;;;21.10;6.13;;;;;;;-141.28;91.65;48793.69;5083365;28;20237;-75
2022/08/26 10:51:54;;;;;;;15.37;6.60;;;;;;;-141.28;91.02;48787.81;5084209;28;20195;-75
2022/08/26 10:54:27;;;;;;;23.63;6.93;;;;;;;-141.28;81.72;48815.28;5074649;28;20199;-75
2022/08/26 10:56:59;;;;;;;17.90;6.80;;;;;;;-141.28;81.70;48789.78;5086575;28;20585;-75
2022/08/26 10:59:40;;;;;;;20.77;7.27;;;;;;;-141.28;80.81;48787.81;5074262;28;20208;-75
2022/08/26 11:02:15;;;;;;;19.80;6.30;;;;;;;-141.28;75.88;48776.03;5076754;28;20664;-76
2022/08/26 11:04:59;;;;;;;12.67;6.07;;;;;;;-141.28;76.09;48783.91;5094540;28;20594;-75
2022/08/26 11:07:36;;;;;;;9.93;6.43;;;;;;;-141.28;73.96;48795.66;5097949;28;20642;-75
2022/08/26 11:10:08;;;;;;;14.40;6.70;;;;;;;-141.28;79.22;48799.59;5099071;28;20222;-75
2022/08/26 11:12:54;;;;;;;18.90;6.33;;;;;;;-141.28;78.67;48805.47;5104744;28;20194;-75
2022/08/26 11:15:57;;;;;;;18.63;7.00;;;;;;;-141.28;76.96;48783.91;5096822;28;20217;-76
2022/08/26 11:18:47;;;;;;;16.97;6.60;;;;;;;-141.28;74.40;48785.84;5098569;28;20206;-78
2022/08/26 11:21:50;;;;;;;18.33;7.20;;;;;;;-141.28;72.14;48744.66;5106406;28;20613;-75
2022/08/26 11:24:40;;;;;;;15.73;6.60;;;;;;;-141.28;71.08;48721.13;5094566;28;20233;-77